South Pownal, Vermont
Current Conditions -  °F | °C
As of 7:20 AM on Thursday 18 Dec 2014 (Local Time) from KAQW Reporting Station
Light Snow Light Snow  
Wind Chill: 21°   Ceiling: 4300
Heat Index: 33°   Visibility: 5mi
Dew Point: 27°   Wind: 21mph
Humidity: 78%   Direction: 250°WSW
Pressure: 29.82"   Gusts: 28mph
Location:  42.7845°N, 73.2029°W
Report Text: KAQW 181220Z AUTO 25018G24KT 5SM -SN FEW021 SCT026 OVC043 01/M03 A2982 RMK AO2 PK WND 25028/1207 UPB00E01SNE00B01 P0000 T00061028
Loading
Personal Weather Stations






























Interactive Weather Map New forecast layout! Learn more

10-Day Weather Forecast

Advertisements
Track Severe Weather on mobile